Groton New London Airport Groton (New London) US
ICAO: KGON
IATA: GON
Category: Medium
Scheduled Services: No

Elevation: 9 ft
TransAlt. 18000 ft.

Airport Communications:
PROVIDENCE APP/DEP:125.75
ATIS:127
CLNC DEL:119.85
CTAF:125.6
GND:121.65
ARNG OPS:126.2
BRIDGEPORT RDO:122.1
TWR:125.6

KGON Zoom In..

Runways:

(A) RW 05 length 5000 ft width 150 ft
ILS 111.30 / hdg 48

(B) RW 15 length 4000 ft width 100 ft
---- / hdg 149

(C) RW 23 length 5000 ft width 150 ft
---- / hdg 228

(D) RW 33 length 4000 ft width 100 ft
---- / hdg 329

Location; KGON
Day. 20 / Time. 19.56 Zulu
* Altimeter: 30.15
* Temperature: 25° c. 77°f.
* Wind from: 180° Speed 08 kn.
Dewpoint: 18° c.
Visibility: 10 Statute Miles.
Clouds: Few 4000 ft.

KGON 201956Z 18008KT 10SM FEW040 25/18 A3015 RMK AO2 SLP208 T02500183 $


Wind From 180°
Speed 08 kn.

 
 
jpsmedia.com for Web Design worldairports.se 2018   terms of use